Time;durP1;ratioP1;P1;durP2;ratioP2;P2;SDS_P1;SDS_P2;PMS_P1;PMS_P2;Temp;Humidity;BMP_temperature;BMP_pressure;BME280_temperature;BME280_humidity;BME280_pressure;Samples;Min_cycle;Max_cycle;Signal;HPM_P1;HPM_P2
2023/05/31 00:00:06;;;;;;;0.40;0.40;;;10.30;99.90;;;;;;4917437;29;20131;-59
2023/05/31 00:02:31;;;;;;;0.20;0.20;;;10.10;99.90;;;;;;4934693;29;20058;-59
2023/05/31 00:04:57;;;;;;;0.40;0.40;;;10.10;99.90;;;;;;4934690;29;20048;-59
2023/05/31 00:07:23;;;;;;;0.20;0.20;;;10.40;99.90;;;;;;4934499;29;20389;-59
2023/05/31 00:09:48;;;;;;;0.20;0.20;;;10.70;99.90;;;;;;4934615;29;20055;-60
2023/05/31 00:12:14;;;;;;;0.43;0.43;;;10.10;99.90;;;;;;4934452;29;20051;-59
2023/05/31 00:14:40;;;;;;;0.60;0.60;;;10.20;99.90;;;;;;4934078;29;20659;-59
2023/05/31 00:17:06;;;;;;;0.30;0.30;;;10.00;99.90;;;;;;4934374;29;20048;-59
2023/05/31 00:19:31;;;;;;;0.28;0.28;;;10.00;99.90;;;;;;4934648;29;20044;-59
2023/05/31 00:21:57;;;;;;;0.55;0.55;;;10.60;99.90;;;;;;4934330;29;20051;-59
2023/05/31 00:24:22;;;;;;;0.20;0.20;;;10.80;99.90;;;;;;4934300;29;20082;-59
2023/05/31 00:26:48;;;;;;;0.20;0.20;;;10.40;99.90;;;;;;4934365;29;20051;-59
2023/05/31 00:29:14;;;;;;;0.38;0.38;;;10.70;99.90;;;;;;4934267;29;20459;-59
2023/05/31 00:31:43;;;;;;;0.30;0.30;;;10.70;99.90;;;;;;4934052;29;20048;-59
2023/05/31 00:34:10;;;;;;;0.30;0.30;;;10.60;99.90;;;;;;4934178;29;20527;-60
2023/05/31 00:36:36;;;;;;;0.20;0.20;;;11.00;99.90;;;;;;4934066;29;20102;-60
2023/05/31 00:39:03;;;;;;;0.20;0.20;;;9.70;99.90;;;;;;4916971;29;20044;-59
2023/05/31 00:41:28;;;;;;;0.28;0.28;;;10.00;99.90;;;;;;4934159;29;20098;-59
2023/05/31 00:43:54;;;;;;;0.50;0.50;;;10.50;99.90;;;;;;4933904;29;20087;-59
2023/05/31 00:46:30;;;;;;;0.60;0.60;;;9.70;99.90;;;;;;4933853;29;20209;-59
2023/05/31 00:48:56;;;;;;;0.73;0.73;;;9.90;99.90;;;;;;4934267;29;20059;-59
2023/05/31 00:51:23;;;;;;;0.47;0.47;;;9.70;99.90;;;;;;4934059;29;20050;-59
2023/05/31 00:53:51;;;;;;;0.40;0.40;;;9.80;99.90;;;;;;4933991;29;20555;-59
2023/05/31 00:56:18;;;;;;;0.30;0.30;;;10.40;99.90;;;;;;4934078;29;20056;-59
2023/05/31 00:58:45;;;;;;;0.20;0.20;;;9.80;99.90;;;;;;4916748;29;20059;-59
2023/05/31 01:01:12;;;;;;;0.22;0.22;;;10.60;99.90;;;;;;4933886;29;20091;-59
2023/05/31 01:03:38;;;;;;;0.20;0.20;;;10.30;99.90;;;;;;4934141;29;20118;-59
2023/05/31 01:06:04;;;;;;;0.38;0.38;;;9.70;99.90;;;;;;4916705;29;20542;-60
2023/05/31 01:08:30;;;;;;;0.80;0.60;;;9.70;99.90;;;;;;4934083;29;20079;-59
2023/05/31 01:11:02;;;;;;;3.60;0.77;;;9.70;99.90;;;;;;4933941;29;20106;-60
2023/05/31 01:14:03;;;;;;;1.38;0.60;;;10.50;99.90;;;;;;4933779;29;20069;-59
2023/05/31 01:16:38;;;;;;;0.63;0.63;;;10.80;99.90;;;;;;4893864;29;20056;-59
2023/05/31 01:19:07;;;;;;;0.40;0.40;;;9.30;99.90;;;;;;4927780;29;20102;-59
2023/05/31 01:22:23;;;;;;;0.45;0.45;;;10.30;99.90;;;;;;4933893;29;20051;-60
2023/05/31 01:25:13;;;;;;;7.03;0.65;;;10.40;99.90;;;;;;4926704;29;20070;-60
2023/05/31 01:27:41;;;;;;;2.22;0.63;;;9.60;99.90;;;;;;4933273;29;20474;-60
2023/05/31 01:30:09;;;;;;;0.20;0.20;;;10.10;99.90;;;;;;4933866;29;20055;-60
2023/05/31 01:32:36;;;;;;;10.88;2.95;;;9.50;99.90;;;;;;4933164;29;20059;-59
2023/05/31 01:35:02;;;;;;;0.32;0.32;;;9.90;99.90;;;;;;4933769;29;20083;-60
2023/05/31 01:37:28;;;;;;;0.50;0.50;;;10.40;99.90;;;;;;4933860;29;20437;-60
2023/05/31 01:39:54;;;;;;;0.30;0.30;;;9.70;99.90;;;;;;4933898;29;20111;-59
2023/05/31 01:42:21;;;;;;;0.40;0.40;;;9.10;99.90;;;;;;4933509;29;20098;-60
2023/05/31 01:44:49;;;;;;;0.32;0.32;;;9.70;99.90;;;;;;4933598;29;20087;-59
2023/05/31 01:47:15;;;;;;;0.30;0.30;;;9.00;99.90;;;;;;4933640;29;20075;-59
2023/05/31 01:49:41;;;;;;;0.25;0.25;;;9.50;99.90;;;;;;4933650;29;20464;-59
2023/05/31 01:52:12;;;;;;;0.30;0.30;;;9.80;99.90;;;;;;4936648;29;20059;-59
2023/05/31 01:54:38;;;;;;;0.32;0.32;;;9.10;99.90;;;;;;4936865;29;20063;-59
2023/05/31 01:57:05;;;;;;;0.57;0.57;;;9.70;99.90;;;;;;4936534;29;20047;-59
2023/05/31 01:59:34;;;;;;;0.20;0.20;;;9.40;99.90;;;;;;4920125;29;20056;-59
2023/05/31 02:02:01;;;;;;;0.30;0.30;;;9.30;99.90;;;;;;4936852;29;20095;-59
2023/05/31 02:04:27;;;;;;;0.30;0.30;;;9.50;99.90;;;;;;4936873;29;20094;-59
2023/05/31 02:06:53;;;;;;;0.60;0.60;;;9.90;99.90;;;;;;4936544;29;20087;-59
2023/05/31 02:09:21;;;;;;;0.50;0.50;;;10.10;99.90;;;;;;4936754;29;20079;-60
2023/05/31 02:11:46;;;;;;;0.40;0.40;;;9.40;99.90;;;;;;4936321;29;20036;-59
2023/05/31 02:14:12;;;;;;;0.75;0.75;;;10.00;99.90;;;;;;4936495;29;20056;-59
2023/05/31 02:16:38;;;;;;;0.65;0.65;;;8.80;99.90;;;;;;4936581;29;20050;-59
2023/05/31 02:19:03;;;;;;;0.60;0.60;;;10.30;99.90;;;;;;4936731;29;20071;-60
2023/05/31 02:21:32;;;;;;;1.92;0.50;;;9.10;99.90;;;;;;4936493;29;20519;-59
2023/05/31 02:23:58;;;;;;;0.32;0.32;;;9.30;99.90;;;;;;4936345;29;20099;-59
2023/05/31 02:26:23;;;;;;;0.20;0.20;;;9.20;99.90;;;;;;4936309;29;20051;-59
2023/05/31 02:28:49;;;;;;;0.30;0.30;;;9.60;99.90;;;;;;4935996;29;20404;-59
2023/05/31 02:31:15;;;;;;;0.80;0.80;;;8.80;99.90;;;;;;4919681;29;20057;-59
2023/05/31 02:33:44;;;;;;;0.40;0.40;;;9.50;99.90;;;;;;4919543;29;20055;-59
2023/05/31 02:36:11;;;;;;;0.85;0.85;;;8.60;99.90;;;;;;4919048;29;20087;-59
2023/05/31 02:38:37;;;;;;;0.40;0.40;;;9.00;99.90;;;;;;4936307;29;20087;-59
2023/05/31 02:41:03;;;;;;;0.60;0.60;;;9.70;99.90;;;;;;4936244;29;20058;-59
2023/05/31 02:43:30;;;;;;;0.30;0.30;;;9.90;99.90;;;;;;4936169;29;20150;-59
2023/05/31 02:45:56;;;;;;;1.95;0.73;;;9.90;99.90;;;;;;4936087;29;20055;-59
2023/05/31 02:48:22;;;;;;;;;;;8.50;99.90;;;;;;4936512;29;20486;-59
2023/05/31 02:50:47;;;;;;;0.30;0.30;;;8.80;99.90;;;;;;4919160;29;19927;-59
2023/05/31 02:53:13;;;;;;;0.38;0.38;;;8.90;99.90;;;;;;4935809;29;20052;-59
2023/05/31 02:55:39;;;;;;;0.20;0.20;;;8.60;99.90;;;;;;4919068;29;20052;-59
2023/05/31 02:58:06;;;;;;;0.35;0.35;;;9.30;99.90;;;;;;4918783;29;20058;-59
2023/05/31 03:00:33;;;;;;;1.75;0.75;;;8.70;99.90;;;;;;4935850;29;20050;-59
2023/05/31 03:02:59;;;;;;;0.40;0.40;;;9.80;99.90;;;;;;4935581;29;20075;-59
2023/05/31 03:05:26;;;;;;;;;;;9.20;99.90;;;;;;4936139;29;20055;-59
2023/05/31 03:07:51;;;;;;;0.30;0.30;;;9.60;99.90;;;;;;4918508;29;19922;-59
2023/05/31 03:10:17;;;;;;;1.20;0.65;;;9.20;99.90;;;;;;4935763;29;20049;-59
2023/05/31 03:12:43;;;;;;;0.30;0.30;;;9.20;99.90;;;;;;4934682;29;20059;-59
2023/05/31 03:15:09;;;;;;;0.32;0.32;;;8.20;99.90;;;;;;4935511;29;20508;-59
2023/05/31 03:17:37;;;;;;;;;;;8.20;99.90;;;;;;4935939;29;20046;-59
2023/05/31 03:20:06;;;;;;;1.17;0.65;;;9.40;99.90;;;;;;4935335;29;19929;-60
2023/05/31 03:22:32;;;;;;;0.30;0.30;;;9.40;99.90;;;;;;4935151;29;20492;-60
2023/05/31 03:24:58;;;;;;;0.38;0.38;;;8.30;99.90;;;;;;4935189;29;20059;-60
2023/05/31 03:27:23;;;;;;;0.30;0.30;;;9.40;99.90;;;;;;4934976;29;20131;-60
2023/05/31 03:29:49;;;;;;;0.30;0.30;;;9.80;99.90;;;;;;4935288;29;20836;-59
2023/05/31 03:32:15;;;;;;;0.35;0.35;;;9.40;99.90;;;;;;4935279;29;20058;-60
2023/05/31 03:34:41;;;;;;;0.30;0.30;;;8.80;99.90;;;;;;4935285;29;20503;-59
2023/05/31 03:37:06;;;;;;;0.30;0.30;;;8.60;99.90;;;;;;4935189;29;20490;-60
2023/05/31 03:39:32;;;;;;;0.50;0.50;;;8.50;99.90;;;;;;4935110;29;20086;-60
2023/05/31 03:42:01;;;;;;;0.30;0.30;;;8.50;99.90;;;;;;4934449;29;20050;-60
2023/05/31 03:44:27;;;;;;;0.40;0.40;;;9.50;99.90;;;;;;4935112;29;20118;-59
2023/05/31 03:46:53;;;;;;;1.65;0.45;;;8.50;99.90;;;;;;4934934;29;20492;-60
2023/05/31 03:49:18;;;;;;;;;;;9.20;99.90;;;;;;4935627;29;20445;-60
2023/05/31 03:51:44;;;;;;;0.30;0.30;;;9.60;99.90;;;;;;4934982;29;20009;-59
2023/05/31 03:54:10;;;;;;;0.38;0.38;;;9.30;99.90;;;;;;4934640;29;20066;-59
2023/05/31 03:56:35;;;;;;;0.30;0.30;;;8.30;99.90;;;;;;4934714;29;20091;-59
2023/05/31 03:59:02;;;;;;;0.30;0.30;;;9.70;99.90;;;;;;4934689;29;20062;-60
2023/05/31 04:01:28;;;;;;;0.30;0.30;;;8.40;99.90;;;;;;4935004;29;20188;-60
2023/05/31 04:03:53;;;;;;;0.45;0.45;;;9.60;99.90;;;;;;4934593;29;20404;-60
2023/05/31 04:06:20;;;;;;;0.40;0.40;;;8.40;99.90;;;;;;4934793;29;20051;-60
2023/05/31 04:08:45;;;;;;;2.47;0.68;;;9.70;99.90;;;;;;4934472;29;20071;-59
2023/05/31 04:11:11;;;;;;;0.43;0.43;;;9.80;99.90;;;;;;4934489;29;20052;-60
2023/05/31 04:13:37;;;;;;;0.45;0.45;;;9.20;99.90;;;;;;4933887;29;20055;-60
2023/05/31 04:16:03;;;;;;;0.30;0.30;;;8.40;99.90;;;;;;4917427;29;20052;-60
2023/05/31 04:18:28;;;;;;;0.20;0.20;;;9.90;99.90;;;;;;4934456;29;20043;-60
2023/05/31 04:20:54;;;;;;;0.30;0.30;;;8.90;99.90;;;;;;4934428;29;20122;-60
2023/05/31 04:23:20;;;;;;;0.35;0.35;;;10.30;99.90;;;;;;4917609;29;20069;-60
2023/05/31 04:25:47;;;;;;;1.75;0.35;;;9.40;99.90;;;;;;4934393;29;20110;-60
2023/05/31 04:28:15;;;;;;;0.30;0.30;;;9.10;99.90;;;;;;4933903;29;20051;-59
2023/05/31 04:30:41;;;;;;;0.35;0.35;;;10.70;99.90;;;;;;4934211;29;20059;-60
2023/05/31 04:33:06;;;;;;;1.02;0.65;;;9.80;99.90;;;;;;4934126;29;20050;-59
2023/05/31 04:35:33;;;;;;;1.58;0.82;;;10.20;99.90;;;;;;4934207;29;20051;-59
2023/05/31 04:38:00;;;;;;;1.05;1.02;;;10.00;99.90;;;;;;4934192;29;20103;-60
2023/05/31 04:40:26;;;;;;;0.60;0.60;;;11.30;99.90;;;;;;4934463;29;20060;-59
2023/05/31 04:42:52;;;;;;;1.13;0.57;;;10.80;99.90;;;;;;4933784;29;20040;-59
2023/05/31 04:45:18;;;;;;;0.40;0.40;;;11.30;99.90;;;;;;4934291;29;20562;-60
2023/05/31 04:47:45;;;;;;;0.43;0.43;;;10.10;99.90;;;;;;4934249;29;20044;-60
2023/05/31 04:50:11;;;;;;;0.40;0.40;;;11.50;99.90;;;;;;4934282;29;20067;-59
2023/05/31 04:52:39;;;;;;;0.65;0.63;;;10.30;99.90;;;;;;4933944;29;20067;-59
2023/05/31 04:55:06;;;;;;;0.43;0.43;;;10.70;99.90;;;;;;4934240;29;20099;-59
2023/05/31 04:57:32;;;;;;;;;;;12.60;99.90;;;;;;4934297;29;20062;-59
2023/05/31 04:59:57;;;;;;;0.32;0.32;;;11.30;99.90;;;;;;4933843;29;19922;-60
2023/05/31 05:02:23;;;;;;;0.70;0.50;;;12.40;99.90;;;;;;4933974;29;20146;-60
2023/05/31 05:04:49;;;;;;;1.65;1.55;;;11.60;99.90;;;;;;4933841;29;20052;-59
2023/05/31 05:07:18;;;;;;;0.70;0.70;;;11.50;99.90;;;;;;4934138;29;20051;-59
2023/05/31 05:09:44;;;;;;;0.52;0.40;;;12.90;99.90;;;;;;4934088;29;20113;-59
2023/05/31 05:12:10;;;;;;;0.60;0.60;;;13.00;99.90;;;;;;4933786;29;20055;-59
2023/05/31 05:14:36;;;;;;;0.55;0.55;;;12.60;99.90;;;;;;4934096;29;20062;-59
2023/05/31 05:17:02;;;;;;;0.68;0.68;;;13.40;99.90;;;;;;4933936;29;20044;-60
2023/05/31 05:19:28;;;;;;;0.45;0.45;;;11.60;99.90;;;;;;4933625;29;20056;-59
2023/05/31 05:21:54;;;;;;;0.75;0.75;;;11.80;99.90;;;;;;4932656;29;20138;-59
2023/05/31 05:24:20;;;;;;;0.73;0.73;;;13.10;99.90;;;;;;4933895;29;20040;-59
2023/05/31 05:26:45;;;;;;;0.40;0.40;;;12.30;99.90;;;;;;4936346;29;20124;-61
2023/05/31 05:29:11;;;;;;;1.73;1.63;;;12.30;99.90;;;;;;4937653;29;20051;-59
2023/05/31 05:31:37;;;;;;;0.52;0.50;;;13.60;99.90;;;;;;4937904;29;20052;-60
2023/05/31 05:34:02;;;;;;;0.20;0.20;;;13.70;99.90;;;;;;4937266;29;20404;-60
2023/05/31 05:36:28;;;;;;;0.63;0.25;;;13.30;99.90;;;;;;4937577;29;20111;-59
2023/05/31 05:38:55;;;;;;;0.45;0.45;;;12.50;99.90;;;;;;4937062;29;20051;-59
2023/05/31 05:41:21;;;;;;;0.68;0.68;;;13.10;99.90;;;;;;4937082;29;20054;-60
2023/05/31 05:43:47;;;;;;;0.52;0.43;;;13.60;99.90;;;;;;4937127;29;20043;-60
2023/05/31 05:46:12;;;;;;;0.20;0.20;;;12.90;99.90;;;;;;4937210;29;20062;-60
2023/05/31 05:48:38;;;;;;;0.77;0.50;;;12.60;99.90;;;;;;4936873;29;20052;-59
2023/05/31 05:51:04;;;;;;;0.40;0.40;;;12.50;99.90;;;;;;4937186;29;20118;-60
2023/05/31 05:53:30;;;;;;;0.32;0.32;;;13.80;99.90;;;;;;4936687;29;20059;-60
2023/05/31 05:55:55;;;;;;;;;;;13.20;99.90;;;;;;4937261;29;20083;-59
2023/05/31 05:58:21;;;;;;;0.40;0.40;;;13.90;99.90;;;;;;4936989;29;19934;-59
2023/05/31 06:00:48;;;;;;;0.20;0.20;;;14.00;99.90;;;;;;4936950;29;20048;-59
2023/05/31 06:03:17;;;;;;;0.80;0.30;;;14.00;99.90;;;;;;4936463;29;20054;-59
2023/05/31 06:05:43;;;;;;;0.70;0.40;;;14.10;99.90;;;;;;4936388;29;20059;-59
2023/05/31 06:08:10;;;;;;;;;;;13.10;99.90;;;;;;4931739;29;20048;-60
2023/05/31 06:10:35;;;;;;;0.30;0.30;;;13.50;99.90;;;;;;4929743;29;19923;-59
2023/05/31 06:13:01;;;;;;;0.43;0.43;;;14.10;99.90;;;;;;4936228;29;20052;-59
2023/05/31 06:15:27;;;;;;;0.38;0.38;;;13.40;99.90;;;;;;4936559;29;20055;-59
2023/05/31 06:17:52;;;;;;;0.20;0.20;;;14.20;99.90;;;;;;4935272;29;20476;-60
2023/05/31 06:20:18;;;;;;;0.20;0.20;;;13.70;99.90;;;;;;4936585;29;20047;-59
2023/05/31 06:22:44;;;;;;;0.10;0.10;;;14.20;99.90;;;;;;4936361;29;20481;-59
2023/05/31 06:25:10;;;;;;;0.30;0.30;;;14.00;99.90;;;;;;4933698;29;20155;-59
2023/05/31 06:27:36;;;;;;;;;;;13.80;99.90;;;;;;4936376;29;20047;-59
2023/05/31 06:30:02;;;;;;;0.20;0.20;;;13.90;99.90;;;;;;4935903;29;19930;-60
2023/05/31 06:32:28;;;;;;;0.20;0.20;;;14.10;99.90;;;;;;4935349;29;20134;-59
2023/05/31 06:34:54;;;;;;;;;;;14.30;99.90;;;;;;4936385;29;20148;-59
2023/05/31 06:37:21;;;;;;;0.20;0.20;;;14.40;99.90;;;;;;4935539;29;20009;-59
2023/05/31 06:39:48;;;;;;;1.30;0.52;;;13.90;99.90;;;;;;4935039;29;20619;-60
2023/05/31 06:42:14;;;;;;;0.30;0.30;;;14.20;99.90;;;;;;4935358;29;20079;-59
2023/05/31 06:44:42;;;;;;;;;;;14.80;99.90;;;;;;4935153;29;20052;-59
2023/05/31 06:47:09;;;;;;;11.43;1.20;;;14.70;99.90;;;;;;4935090;29;19942;-59
2023/05/31 06:49:34;;;;;;;0.20;0.20;;;14.40;99.90;;;;;;4935886;29;20043;-59
2023/05/31 06:52:00;;;;;;;0.20;0.20;;;14.40;99.90;;;;;;4929364;29;20522;-59
2023/05/31 06:54:29;;;;;;;0.20;0.20;;;14.40;99.90;;;;;;4933195;29;20070;-60
2023/05/31 06:56:55;;;;;;;0.40;0.40;;;14.80;99.90;;;;;;4935446;29;20139;-59
2023/05/31 06:59:20;;;;;;;0.20;0.20;;;15.00;99.90;;;;;;4935608;29;20063;-59
2023/05/31 07:01:46;;;;;;;;;;;14.80;99.90;;;;;;4935843;29;20055;-60
2023/05/31 07:04:12;;;;;;;0.70;0.60;;;14.90;99.90;;;;;;4934228;29;19927;-60
2023/05/31 07:06:38;;;;;;;0.32;0.32;;;15.10;99.90;;;;;;4935358;29;20065;-60
2023/05/31 07:09:06;;;;;;;0.63;0.52;;;15.20;99.90;;;;;;4934862;29;20095;-59
2023/05/31 07:11:32;;;;;;;0.38;0.38;;;15.10;99.90;;;;;;4935751;29;20095;-60
2023/05/31 07:14:01;;;;;;;0.80;0.80;;;15.30;99.90;;;;;;4935258;29;20062;-60
2023/05/31 07:16:27;;;;;;;0.10;0.10;;;15.40;99.90;;;;;;4933710;29;20054;-59
2023/05/31 07:18:55;;;;;;;0.20;0.20;;;15.40;99.90;;;;;;4918367;29;20075;-59
2023/05/31 07:21:21;;;;;;;0.20;0.20;;;14.70;99.90;;;;;;4935421;29;20051;-59
2023/05/31 07:23:47;;;;;;;0.60;0.35;;;15.30;99.90;;;;;;4934091;29;20039;-59
2023/05/31 07:26:12;;;;;;;;;;;15.40;99.90;;;;;;4935890;29;20047;-59
2023/05/31 07:28:38;;;;;;;2.17;0.57;;;15.20;99.90;;;;;;4935132;29;19985;-59
2023/05/31 07:31:04;;;;;;;;;;;15.40;99.90;;;;;;4934190;29;20047;-60
2023/05/31 07:33:30;;;;;;;0.17;0.17;;;15.70;99.90;;;;;;4935243;29;20089;-59
2023/05/31 07:35:59;;;;;;;0.30;0.30;;;15.60;99.90;;;;;;4934606;29;20051;-59
2023/05/31 07:38:25;;;;;;;0.38;0.38;;;15.80;99.90;;;;;;4934321;29;20048;-60
2023/05/31 07:40:51;;;;;;;;;;;15.70;99.90;;;;;;4934867;29;20051;-60
2023/05/31 07:43:20;;;;;;;0.52;0.30;;;15.70;99.90;;;;;;4933586;29;19923;-60
2023/05/31 07:45:46;;;;;;;0.45;0.45;;;15.40;99.90;;;;;;4924587;29;20505;-59
2023/05/31 07:48:12;;;;;;;0.55;0.55;;;15.60;99.90;;;;;;4934216;29;20074;-60
2023/05/31 07:50:38;;;;;;;;;;;15.70;99.90;;;;;;4934911;29;20134;-62
2023/05/31 07:53:03;;;;;;;0.30;0.30;;;15.40;99.90;;;;;;4933634;29;20629;-60
2023/05/31 07:55:29;;;;;;;;;;;15.20;99.90;;;;;;4935244;29;20060;-60
2023/05/31 07:57:54;;;;;;;0.38;0.38;;;15.40;99.90;;;;;;4934611;29;19927;-61
2023/05/31 08:00:20;;;;;;;;;;;15.00;99.90;;;;;;4934968;29;20050;-60
2023/05/31 08:02:46;;;;;;;1.98;0.57;;;14.50;99.90;;;;;;4934801;29;20371;-61
2023/05/31 08:05:12;;;;;;;;;;;14.80;99.90;;;;;;4935206;29;20106;-60
2023/05/31 08:07:38;;;;;;;0.30;0.30;;;14.70;99.90;;;;;;4933745;29;20013;-61
2023/05/31 08:10:04;;;;;;;;;;;15.00;99.90;;;;;;4934916;29;20110;-60
2023/05/31 08:12:30;;;;;;;1.10;1.00;;;15.20;99.90;;;;;;4934207;29;19926;-61
2023/05/31 08:14:56;;;;;;;;;;;15.60;99.90;;;;;;4934498;29;20094;-60
2023/05/31 08:17:22;;;;;;;0.22;0.20;;;15.30;99.90;;;;;;4934594;29;20367;-61
2023/05/31 08:19:47;;;;;;;;;;;15.20;99.90;;;;;;4934744;29;20126;-61
2023/05/31 08:22:13;;;;;;;4.18;2.38;;;15.10;99.90;;;;;;4924561;29;19944;-61
2023/05/31 08:24:38;;;;;;;;;;;15.40;99.90;;;;;;4930514;29;20079;-60
2023/05/31 08:27:05;;;;;;;0.57;0.50;;;15.40;99.90;;;;;;4934000;29;20371;-61
2023/05/31 08:29:31;;;;;;;0.25;0.25;;;15.10;99.90;;;;;;4934330;29;20047;-60
2023/05/31 08:31:57;;;;;;;;;;;15.50;99.90;;;;;;4934102;29;20143;-60
2023/05/31 08:34:22;;;;;;;1.20;0.50;;;15.40;99.90;;;;;;4933761;29;20394;-61
2023/05/31 08:36:48;;;;;;;;;;;15.20;99.90;;;;;;4934747;29;20052;-60
2023/05/31 08:39:14;;;;;;;0.55;0.25;;;15.40;99.90;;;;;;4933379;29;20387;-60
2023/05/31 08:42:03;;;;;;;0.40;0.38;;;15.10;99.90;;;;;;4934193;29;20054;-60
2023/05/31 08:44:29;;;;;;;1.33;1.23;;;14.90;99.90;;;;;;4933685;29;20488;-61
2023/05/31 08:47:19;;;;;;;0.40;0.40;;;14.80;99.90;;;;;;4933792;29;20047;-60
2023/05/31 08:49:46;;;;;;;0.10;0.10;;;14.80;99.90;;;;;;4934123;29;20050;-60
2023/05/31 08:52:12;;;;;;;0.10;0.10;;;15.10;99.90;;;;;;4914301;29;20051;-60
2023/05/31 08:54:39;;;;;;;0.30;0.30;;;15.30;99.90;;;;;;4931426;29;20098;-60
2023/05/31 08:57:05;;;;;;;0.15;0.15;;;15.10;99.90;;;;;;4934385;29;20058;-62
2023/05/31 08:59:33;;;;;;;0.47;0.47;;;15.10;99.90;;;;;;4935081;29;20060;-61
2023/05/31 09:02:00;;;;;;;0.20;0.20;;;15.10;99.90;;;;;;4938319;29;20063;-61
2023/05/31 09:04:26;;;;;;;0.17;0.17;;;15.20;99.90;;;;;;4938061;29;20492;-61
2023/05/31 09:06:52;;;;;;;;;;;15.00;99.90;;;;;;4953377;29;20437;-62
2023/05/31 09:09:18;;;;;;;0.28;0.28;;;14.80;99.90;;;;;;4938162;29;19993;-60
2023/05/31 09:11:45;;;;;;;0.40;0.40;;;14.40;99.90;;;;;;4952766;29;20568;-60
2023/05/31 09:14:11;;;;;;;1.33;1.25;;;14.60;99.90;;;;;;4938036;29;20055;-60
2023/05/31 09:16:37;;;;;;;;;;;15.00;99.90;;;;;;4938357;29;20475;-60
2023/05/31 09:19:05;;;;;;;0.95;0.90;;;15.00;99.90;;;;;;4937910;29;19923;-60
2023/05/31 09:21:39;;;;;;;0.30;0.30;;;15.00;99.90;;;;;;4938136;29;20056;-60
2023/05/31 09:24:06;;;;;;;0.32;0.28;;;14.50;99.90;;;;;;4938315;29;20083;-60
2023/05/31 09:26:32;;;;;;;0.20;0.20;;;15.20;99.90;;;;;;4936751;29;20378;-60
2023/05/31 09:28:59;;;;;;;0.35;0.35;;;15.00;99.90;;;;;;4937716;29;20047;-60
2023/05/31 09:31:25;;;;;;;0.47;0.47;;;15.20;99.90;;;;;;4937688;29;20051;-60
2023/05/31 09:33:53;;;;;;;0.22;0.22;;;15.30;99.90;;;;;;4937551;29;20524;-60
2023/05/31 09:36:31;;;;;;;0.10;0.10;;;15.50;99.90;;;;;;4937588;29;20524;-60
2023/05/31 09:39:05;;;;;;;0.70;0.52;;;15.90;99.90;;;;;;4936125;29;20518;-60
2023/05/31 09:41:32;;;;;;;0.80;0.30;;;15.70;99.90;;;;;;4937435;29;20567;-60
2023/05/31 09:43:58;;;;;;;0.38;0.38;;;15.70;99.90;;;;;;4937489;29;20047;-61
2023/05/31 09:46:25;;;;;;;1.60;1.45;;;15.20;99.90;;;;;;4937142;29;20066;-61
2023/05/31 09:49:19;;;;;;;0.20;0.20;;;15.50;99.90;;;;;;4937498;29;20096;-61
2023/05/31 09:51:53;;;;;;;0.30;0.30;;;16.10;99.90;;;;;;4928451;29;20051;-62
2023/05/31 09:54:24;;;;;;;0.73;0.73;;;16.00;99.90;;;;;;4936800;29;20089;-61
2023/05/31 09:56:50;;;;;;;0.32;0.32;;;16.00;99.90;;;;;;4936879;29;20428;-61
2023/05/31 09:59:17;;;;;;;0.55;0.52;;;16.60;99.90;;;;;;4936585;29;20146;-61
2023/05/31 10:01:44;;;;;;;0.20;0.20;;;16.00;99.90;;;;;;4936840;29;20044;-61
2023/05/31 10:04:11;;;;;;;0.30;0.30;;;16.60;99.90;;;;;;4937037;29;20052;-61
2023/05/31 10:06:37;;;;;;;0.13;0.13;;;16.40;99.90;;;;;;4935961;29;20051;-61
2023/05/31 10:09:10;;;;;;;0.30;0.30;;;16.80;99.90;;;;;;4936783;29;20055;-62
2023/05/31 10:11:41;;;;;;;0.40;0.40;;;16.20;99.90;;;;;;4931415;29;20110;-60
2023/05/31 10:14:23;;;;;;;0.20;0.20;;;16.50;99.90;;;;;;4935340;29;20612;-60
2023/05/31 10:16:53;;;;;;;0.30;0.30;;;16.40;99.90;;;;;;4936983;29;20055;-60
2023/05/31 10:19:24;;;;;;;0.15;0.15;;;16.60;99.90;;;;;;4936778;29;20059;-60
2023/05/31 10:21:50;;;;;;;0.32;0.32;;;17.00;99.90;;;;;;4936715;29;20054;-60
2023/05/31 10:25:05;;;;;;;0.28;0.28;;;16.90;99.90;;;;;;4936901;29;20048;-61
2023/05/31 10:27:44;;;;;;;0.22;0.22;;;16.70;99.90;;;;;;4928477;29;20060;-61
2023/05/31 10:30:12;;;;;;;0.17;0.17;;;16.40;99.90;;;;;;4936645;29;20460;-61
2023/05/31 10:33:05;;;;;;;0.30;0.30;;;16.40;99.90;;;;;;4936792;29;20078;-62
2023/05/31 10:35:31;;;;;;;0.20;0.20;;;16.00;99.90;;;;;;4936665;29;20051;-61
2023/05/31 10:37:59;;;;;;;0.20;0.20;;;16.40;99.90;;;;;;4936508;29;20043;-60
2023/05/31 10:40:50;;;;;;;0.20;0.20;;;16.40;99.90;;;;;;4950911;29;20055;-60
2023/05/31 10:43:38;;;;;;;0.40;0.40;;;14.20;99.90;;;;;;4936543;29;20047;-61
2023/05/31 10:46:28;;;;;;;0.17;0.17;;;16.60;99.90;;;;;;4936506;29;20134;-60
2023/05/31 10:48:58;;;;;;;0.43;0.43;;;16.80;99.90;;;;;;4936192;29;20090;-60
2023/05/31 10:51:40;;;;;;;0.65;0.65;;;17.10;99.90;;;;;;4933679;29;20087;-63
2023/05/31 10:54:05;;;;;;;0.50;0.50;;;17.60;99.90;;;;;;4928308;29;20059;-60
2023/05/31 10:56:32;;;;;;;0.45;0.45;;;17.40;99.90;;;;;;4934045;29;20111;-61
2023/05/31 10:58:57;;;;;;;0.30;0.30;;;16.70;99.90;;;;;;4934676;29;20075;-61
2023/05/31 11:01:28;;;;;;;0.28;0.28;;;16.80;99.90;;;;;;4935158;29;20082;-61
2023/05/31 11:03:57;;;;;;;0.20;0.20;;;17.10;99.90;;;;;;4936231;29;20397;-60
2023/05/31 11:06:31;;;;;;;0.40;0.40;;;16.60;99.90;;;;;;4936051;29;20083;-60
2023/05/31 11:09:01;;;;;;;0.15;0.15;;;16.60;99.90;;;;;;4935981;29;20039;-60
2023/05/31 11:11:32;;;;;;;0.98;0.73;;;16.60;99.90;;;;;;4935969;29;20152;-60
2023/05/31 11:14:03;;;;;;;0.30;0.30;;;16.80;99.90;;;;;;4935754;29;20408;-60
2023/05/31 11:17:04;;;;;;;0.20;0.20;;;17.00;99.90;;;;;;4935998;29;20060;-60
2023/05/31 11:19:31;;;;;;;0.80;0.57;;;16.60;99.90;;;;;;4931617;29;20568;-60
2023/05/31 11:22:07;;;;;;;0.25;0.25;;;16.80;99.90;;;;;;4935891;29;20047;-60
2023/05/31 11:24:51;;;;;;;0.20;0.20;;;16.90;99.90;;;;;;4935725;29;20051;-60
2023/05/31 11:27:19;;;;;;;0.28;0.28;;;17.60;99.90;;;;;;4935575;29;20525;-60
2023/05/31 11:29:44;;;;;;;0.43;0.40;;;17.70;99.90;;;;;;4935628;29;20048;-60
2023/05/31 11:32:11;;;;;;;0.52;0.32;;;18.30;99.90;;;;;;4935486;29;20154;-60
2023/05/31 11:34:50;;;;;;;2.15;0.35;;;17.90;99.90;;;;;;4935460;29;20087;-60
2023/05/31 11:37:16;;;;;;;0.35;0.35;;;17.80;99.90;;;;;;4935764;29;20074;-60
2023/05/31 11:39:45;;;;;;;0.20;0.20;;;17.80;99.90;;;;;;4935722;29;20492;-61
2023/05/31 11:42:12;;;;;;;11.50;1.48;;;17.50;99.90;;;;;;4935398;29;20059;-61
2023/05/31 11:44:43;;;;;;;0.20;0.20;;;17.40;99.90;;;;;;4935240;29;20400;-60
2023/05/31 11:47:25;;;;;;;3.08;0.75;;;17.00;99.90;;;;;;4935133;29;20083;-61
2023/05/31 11:49:51;;;;;;;0.30;0.30;;;17.10;99.90;;;;;;4935178;29;20893;-61
2023/05/31 11:52:18;;;;;;;0.45;0.45;;;17.30;99.90;;;;;;4935267;29;20051;-61
2023/05/31 11:54:45;;;;;;;0.30;0.30;;;17.40;99.90;;;;;;4934944;29;20139;-60
2023/05/31 11:57:14;;;;;;;0.52;0.43;;;17.70;99.90;;;;;;4935193;29;20070;-60
2023/05/31 11:59:40;;;;;;;0.35;0.30;;;18.00;99.90;;;;;;4934916;29;20055;-60
2023/05/31 12:02:08;;;;;;;0.40;0.40;;;17.40;99.90;;;;;;4934857;29;20131;-60
2023/05/31 12:04:39;;;;;;;0.30;0.30;;;17.30;99.90;;;;;;4931648;29;20056;-60
2023/05/31 12:07:10;;;;;;;0.10;0.10;;;17.40;99.90;;;;;;4931571;29;20585;-62
2023/05/31 12:09:36;;;;;;;0.45;0.45;;;17.40;99.90;;;;;;4934626;29;20066;-60
2023/05/31 12:12:05;;;;;;;0.50;0.50;;;17.20;99.90;;;;;;4934326;29;20048;-59
2023/05/31 12:14:31;;;;;;;1.88;0.22;;;17.30;99.90;;;;;;4934217;29;20067;-60
2023/05/31 12:17:04;;;;;;;0.43;0.38;;;17.60;99.90;;;;;;4917824;29;20110;-60
2023/05/31 12:19:30;;;;;;;0.20;0.20;;;17.70;99.90;;;;;;4934864;29;20165;-60
2023/05/31 12:21:56;;;;;;;0.75;0.75;;;17.60;99.90;;;;;;4917596;29;20106;-60
2023/05/31 12:24:22;;;;;;;0.38;0.30;;;17.20;99.90;;;;;;4934574;29;20048;-61
2023/05/31 12:26:48;;;;;;;0.43;0.43;;;17.50;99.90;;;;;;4934304;29;20485;-59
2023/05/31 12:29:18;;;;;;;0.30;0.30;;;17.40;99.90;;;;;;4917699;29;20098;-59
2023/05/31 12:31:45;;;;;;;0.10;0.10;;;17.60;99.90;;;;;;4934708;29;20051;-60
2023/05/31 12:34:20;;;;;;;0.22;0.22;;;17.10;99.90;;;;;;4934143;29;20052;-60
2023/05/31 12:36:47;;;;;;;6.13;1.75;;;17.20;99.90;;;;;;4934518;29;20047;-59
2023/05/31 12:39:24;;;;;;;0.05;0.05;;;17.40;99.90;;;;;;4929424;29;20131;-61
2023/05/31 12:41:50;;;;;;;0.20;0.20;;;17.20;99.90;;;;;;4932793;29;20498;-59
2023/05/31 12:44:23;;;;;;;0.98;0.75;;;17.50;99.90;;;;;;4934107;29;20134;-60
2023/05/31 12:46:50;;;;;;;2.65;1.27;;;17.40;99.90;;;;;;4933682;29;20090;-59
2023/05/31 12:49:24;;;;;;;0.30;0.30;;;17.90;99.90;;;;;;4933981;29;20168;-60
2023/05/31 12:52:02;;;;;;;0.25;0.25;;;17.50;99.90;;;;;;4933716;29;20044;-60
2023/05/31 12:54:47;;;;;;;0.57;0.57;;;17.80;99.90;;;;;;4932984;29;20098;-60
2023/05/31 12:57:13;;;;;;;0.70;0.70;;;17.70;99.90;;;;;;4933867;29;20440;-59
2023/05/31 12:59:39;;;;;;;0.10;0.10;;;17.70;99.90;;;;;;4933926;29;20475;-59